sensor_id;sensor_type;location;lat;lon;timestamp;temperature;humidity
17399;DHT22;8817;48.170;8.592;2023-02-08T00:00:52;3.20;49.40
17399;DHT22;8817;48.170;8.592;2023-02-08T00:03:19;3.20;49.40
17399;DHT22;8817;48.170;8.592;2023-02-08T00:05:45;3.20;49.40
17399;DHT22;8817;48.170;8.592;2023-02-08T00:08:12;3.20;49.30
17399;DHT22;8817;48.170;8.592;2023-02-08T00:10:39;3.20;49.40
17399;DHT22;8817;48.170;8.592;2023-02-08T00:13:06;3.20;49.40
17399;DHT22;8817;48.170;8.592;2023-02-08T00:15:37;3.20;49.40
17399;DHT22;8817;48.170;8.592;2023-02-08T00:18:06;3.20;49.40
17399;DHT22;8817;48.170;8.592;2023-02-08T00:20:33;3.10;49.30
17399;DHT22;8817;48.170;8.592;2023-02-08T00:22:59;3.20;49.40
17399;DHT22;8817;48.170;8.592;2023-02-08T00:25:27;3.10;49.30
17399;DHT22;8817;48.170;8.592;2023-02-08T00:27:55;3.10;49.30
17399;DHT22;8817;48.170;8.592;2023-02-08T00:30:22;3.10;49.20
17399;DHT22;8817;48.170;8.592;2023-02-08T00:32:50;3.10;49.20
17399;DHT22;8817;48.170;8.592;2023-02-08T00:35:17;3.00;49.20
17399;DHT22;8817;48.170;8.592;2023-02-08T00:37:44;3.10;49.30
17399;DHT22;8817;48.170;8.592;2023-02-08T00:40:11;3.00;49.20
17399;DHT22;8817;48.170;8.592;2023-02-08T00:42:38;3.00;49.20
17399;DHT22;8817;48.170;8.592;2023-02-08T00:45:05;3.00;49.20
17399;DHT22;8817;48.170;8.592;2023-02-08T00:47:32;3.00;49.20
17399;DHT22;8817;48.170;8.592;2023-02-08T00:50:00;2.90;49.10
17399;DHT22;8817;48.170;8.592;2023-02-08T00:52:28;2.90;49.10
17399;DHT22;8817;48.170;8.592;2023-02-08T00:54:55;2.90;49.20
17399;DHT22;8817;48.170;8.592;2023-02-08T00:57:22;2.90;49.20
17399;DHT22;8817;48.170;8.592;2023-02-08T00:59:48;2.90;49.20
17399;DHT22;8817;48.170;8.592;2023-02-08T01:02:15;2.80;49.20
17399;DHT22;8817;48.170;8.592;2023-02-08T01:04:42;2.80;49.20
17399;DHT22;8817;48.170;8.592;2023-02-08T01:07:10;2.80;49.20
17399;DHT22;8817;48.170;8.592;2023-02-08T01:09:38;2.80;49.10
17399;DHT22;8817;48.170;8.592;2023-02-08T01:12:05;2.80;49.10
17399;DHT22;8817;48.170;8.592;2023-02-08T01:14:31;2.80;49.10
17399;DHT22;8817;48.170;8.592;2023-02-08T01:16:58;2.80;49.10
17399;DHT22;8817;48.170;8.592;2023-02-08T01:19:25;2.70;49.10
17399;DHT22;8817;48.170;8.592;2023-02-08T01:21:52;2.70;49.10
17399;DHT22;8817;48.170;8.592;2023-02-08T01:24:21;2.70;49.10
17399;DHT22;8817;48.170;8.592;2023-02-08T01:26:48;2.70;49.00
17399;DHT22;8817;48.170;8.592;2023-02-08T01:29:15;2.60;49.00
17399;DHT22;8817;48.170;8.592;2023-02-08T01:31:43;2.60;49.00
17399;DHT22;8817;48.170;8.592;2023-02-08T01:34:10;2.60;49.00
17399;DHT22;8817;48.170;8.592;2023-02-08T01:36:38;2.50;48.90
17399;DHT22;8817;48.170;8.592;2023-02-08T01:39:09;2.50;49.00
17399;DHT22;8817;48.170;8.592;2023-02-08T01:41:39;2.50;49.00
17399;DHT22;8817;48.170;8.592;2023-02-08T01:47:13;2.50;49.10
17399;DHT22;8817;48.170;8.592;2023-02-08T01:49:41;2.50;49.10
17399;DHT22;8817;48.170;8.592;2023-02-08T01:52:12;2.40;49.10
17399;DHT22;8817;48.170;8.592;2023-02-08T01:54:45;2.40;49.60
17399;DHT22;8817;48.170;8.592;2023-02-08T01:57:14;2.40;49.10
17399;DHT22;8817;48.170;8.592;2023-02-08T01:59:46;2.40;49.10
17399;DHT22;8817;48.170;8.592;2023-02-08T02:02:16;2.40;49.10
17399;DHT22;8817;48.170;8.592;2023-02-08T02:04:43;2.40;49.10
17399;DHT22;8817;48.170;8.592;2023-02-08T02:07:10;2.40;49.10
17399;DHT22;8817;48.170;8.592;2023-02-08T02:09:43;2.40;49.10
17399;DHT22;8817;48.170;8.592;2023-02-08T02:12:11;2.40;49.00
17399;DHT22;8817;48.170;8.592;2023-02-08T02:14:40;2.30;49.00
17399;DHT22;8817;48.170;8.592;2023-02-08T02:17:10;2.40;49.00
17399;DHT22;8817;48.170;8.592;2023-02-08T02:19:45;2.30;49.00
17399;DHT22;8817;48.170;8.592;2023-02-08T02:25:47;2.30;49.00
17399;DHT22;8817;48.170;8.592;2023-02-08T02:28:32;2.30;49.00
17399;DHT22;8817;48.170;8.592;2023-02-08T02:31:33;2.20;48.90
17399;DHT22;8817;48.170;8.592;2023-02-08T02:34:09;2.20;48.90
17399;DHT22;8817;48.170;8.592;2023-02-08T02:36:46;2.20;48.90
17399;DHT22;8817;48.170;8.592;2023-02-08T02:39:22;2.20;48.90
17399;DHT22;8817;48.170;8.592;2023-02-08T02:41:55;2.10;48.90
17399;DHT22;8817;48.170;8.592;2023-02-08T02:44:53;2.10;48.80
17399;DHT22;8817;48.170;8.592;2023-02-08T02:47:30;2.10;48.90
17399;DHT22;8817;48.170;8.592;2023-02-08T02:50:03;2.10;48.90
17399;DHT22;8817;48.170;8.592;2023-02-08T02:52:37;2.10;48.90
17399;DHT22;8817;48.170;8.592;2023-02-08T02:55:09;2.10;48.90
17399;DHT22;8817;48.170;8.592;2023-02-08T02:57:39;2.00;48.90
17399;DHT22;8817;48.170;8.592;2023-02-08T03:00:10;2.00;48.90
17399;DHT22;8817;48.170;8.592;2023-02-08T03:02:39;2.00;48.90
17399;DHT22;8817;48.170;8.592;2023-02-08T03:05:09;2.00;48.90
17399;DHT22;8817;48.170;8.592;2023-02-08T03:07:50;2.00;48.90
17399;DHT22;8817;48.170;8.592;2023-02-08T03:10:42;1.90;48.90
17399;DHT22;8817;48.170;8.592;2023-02-08T03:13:19;1.90;48.90
17399;DHT22;8817;48.170;8.592;2023-02-08T03:16:02;1.90;48.80
17399;DHT22;8817;48.170;8.592;2023-02-08T03:18:39;1.90;48.80
17399;DHT22;8817;48.170;8.592;2023-02-08T03:21:13;1.90;48.90
17399;DHT22;8817;48.170;8.592;2023-02-08T03:23:51;1.80;48.80
17399;DHT22;8817;48.170;8.592;2023-02-08T03:26:25;1.90;48.80
17399;DHT22;8817;48.170;8.592;2023-02-08T03:29:00;1.90;48.90
17399;DHT22;8817;48.170;8.592;2023-02-08T03:31:31;1.80;48.80
17399;DHT22;8817;48.170;8.592;2023-02-08T03:34:04;1.80;48.80
17399;DHT22;8817;48.170;8.592;2023-02-08T03:36:37;1.80;48.80
17399;DHT22;8817;48.170;8.592;2023-02-08T03:39:09;1.80;48.80
17399;DHT22;8817;48.170;8.592;2023-02-08T03:41:40;1.80;48.80
17399;DHT22;8817;48.170;8.592;2023-02-08T03:44:12;1.80;48.80
17399;DHT22;8817;48.170;8.592;2023-02-08T03:46:43;1.80;48.80
17399;DHT22;8817;48.170;8.592;2023-02-08T03:49:17;1.80;48.80
17399;DHT22;8817;48.170;8.592;2023-02-08T03:51:45;1.80;48.90
17399;DHT22;8817;48.170;8.592;2023-02-08T03:54:16;1.70;48.80
17399;DHT22;8817;48.170;8.592;2023-02-08T03:56:46;1.70;48.70
17399;DHT22;8817;48.170;8.592;2023-02-08T03:59:16;1.70;48.70
17399;DHT22;8817;48.170;8.592;2023-02-08T04:01:47;1.70;48.80
17399;DHT22;8817;48.170;8.592;2023-02-08T04:04:18;1.70;48.80
17399;DHT22;8817;48.170;8.592;2023-02-08T04:06:46;1.70;48.80
17399;DHT22;8817;48.170;8.592;2023-02-08T04:09:13;1.70;48.80
17399;DHT22;8817;48.170;8.592;2023-02-08T04:11:40;1.70;48.80
17399;DHT22;8817;48.170;8.592;2023-02-08T04:14:07;1.70;48.80
17399;DHT22;8817;48.170;8.592;2023-02-08T04:16:34;1.70;48.70
17399;DHT22;8817;48.170;8.592;2023-02-08T04:19:01;1.70;48.70
17399;DHT22;8817;48.170;8.592;2023-02-08T04:21:29;1.70;48.80
17399;DHT22;8817;48.170;8.592;2023-02-08T04:23:56;1.70;48.80
17399;DHT22;8817;48.170;8.592;2023-02-08T04:26:23;1.70;48.80
17399;DHT22;8817;48.170;8.592;2023-02-08T04:28:50;1.60;48.70
17399;DHT22;8817;48.170;8.592;2023-02-08T04:31:17;1.70;48.70
17399;DHT22;8817;48.170;8.592;2023-02-08T04:33:44;1.60;48.70
17399;DHT22;8817;48.170;8.592;2023-02-08T04:36:11;1.60;48.70
17399;DHT22;8817;48.170;8.592;2023-02-08T04:38:40;1.60;48.70
17399;DHT22;8817;48.170;8.592;2023-02-08T04:41:06;1.60;48.70
17399;DHT22;8817;48.170;8.592;2023-02-08T04:43:33;1.60;48.60
17399;DHT22;8817;48.170;8.592;2023-02-08T04:46:00;1.60;48.70
17399;DHT22;8817;48.170;8.592;2023-02-08T04:48:28;1.60;48.70
17399;DHT22;8817;48.170;8.592;2023-02-08T04:50:55;1.60;48.70
17399;DHT22;8817;48.170;8.592;2023-02-08T04:53:22;1.60;48.70
17399;DHT22;8817;48.170;8.592;2023-02-08T04:55:50;1.60;48.70
17399;DHT22;8817;48.170;8.592;2023-02-08T04:58:18;1.60;48.70
17399;DHT22;8817;48.170;8.592;2023-02-08T05:00:45;1.60;48.70
17399;DHT22;8817;48.170;8.592;2023-02-08T05:03:13;1.60;48.70
17399;DHT22;8817;48.170;8.592;2023-02-08T05:05:40;1.60;48.70
17399;DHT22;8817;48.170;8.592;2023-02-08T05:08:07;1.60;48.70
17399;DHT22;8817;48.170;8.592;2023-02-08T05:10:34;1.60;48.70
17399;DHT22;8817;48.170;8.592;2023-02-08T05:13:02;1.60;48.70
17399;DHT22;8817;48.170;8.592;2023-02-08T05:15:29;1.60;48.60
17399;DHT22;8817;48.170;8.592;2023-02-08T05:17:56;1.50;48.50
17399;DHT22;8817;48.170;8.592;2023-02-08T05:20:23;1.50;48.50
17399;DHT22;8817;48.170;8.592;2023-02-08T05:22:50;1.50;48.50
17399;DHT22;8817;48.170;8.592;2023-02-08T05:25:17;1.50;48.50
17399;DHT22;8817;48.170;8.592;2023-02-08T05:27:44;1.50;48.60
17399;DHT22;8817;48.170;8.592;2023-02-08T05:30:12;1.50;48.60
17399;DHT22;8817;48.170;8.592;2023-02-08T05:32:40;1.50;48.60
17399;DHT22;8817;48.170;8.592;2023-02-08T05:35:07;1.50;48.50
17399;DHT22;8817;48.170;8.592;2023-02-08T05:37:34;1.40;48.50
17399;DHT22;8817;48.170;8.592;2023-02-08T05:40:01;1.40;48.50
17399;DHT22;8817;48.170;8.592;2023-02-08T05:42:28;1.40;48.50
17399;DHT22;8817;48.170;8.592;2023-02-08T05:44:55;1.40;48.50
17399;DHT22;8817;48.170;8.592;2023-02-08T05:47:23;1.40;48.50
17399;DHT22;8817;48.170;8.592;2023-02-08T05:49:50;1.40;48.50
17399;DHT22;8817;48.170;8.592;2023-02-08T05:52:17;1.40;48.50
17399;DHT22;8817;48.170;8.592;2023-02-08T05:54:44;1.40;48.50
17399;DHT22;8817;48.170;8.592;2023-02-08T05:57:10;1.40;48.50
17399;DHT22;8817;48.170;8.592;2023-02-08T05:59:37;1.30;48.40
17399;DHT22;8817;48.170;8.592;2023-02-08T06:02:04;1.20;48.40
17399;DHT22;8817;48.170;8.592;2023-02-08T06:04:33;1.30;48.50
17399;DHT22;8817;48.170;8.592;2023-02-08T06:07:00;1.30;48.40
17399;DHT22;8817;48.170;8.592;2023-02-08T06:09:27;1.30;48.40
17399;DHT22;8817;48.170;8.592;2023-02-08T06:11:53;1.30;48.40
17399;DHT22;8817;48.170;8.592;2023-02-08T06:14:20;1.30;48.40
17399;DHT22;8817;48.170;8.592;2023-02-08T06:16:47;1.20;48.40
17399;DHT22;8817;48.170;8.592;2023-02-08T06:19:14;1.20;48.40
17399;DHT22;8817;48.170;8.592;2023-02-08T06:21:42;1.20;48.40
17399;DHT22;8817;48.170;8.592;2023-02-08T06:24:09;1.20;48.40
17399;DHT22;8817;48.170;8.592;2023-02-08T06:26:38;1.20;48.40
17399;DHT22;8817;48.170;8.592;2023-02-08T06:29:05;1.20;48.50
17399;DHT22;8817;48.170;8.592;2023-02-08T06:31:32;1.20;48.50
17399;DHT22;8817;48.170;8.592;2023-02-08T06:33:59;1.20;48.50
17399;DHT22;8817;48.170;8.592;2023-02-08T06:36:26;1.10;48.40
17399;DHT22;8817;48.170;8.592;2023-02-08T06:38:54;1.20;48.40
17399;DHT22;8817;48.170;8.592;2023-02-08T06:41:21;1.20;48.50
17399;DHT22;8817;48.170;8.592;2023-02-08T06:43:48;1.10;48.40
17399;DHT22;8817;48.170;8.592;2023-02-08T06:46:15;1.10;48.40
17399;DHT22;8817;48.170;8.592;2023-02-08T06:48:42;1.20;48.50
17399;DHT22;8817;48.170;8.592;2023-02-08T06:51:09;1.20;48.50
17399;DHT22;8817;48.170;8.592;2023-02-08T06:53:36;1.10;48.40
17399;DHT22;8817;48.170;8.592;2023-02-08T06:56:04;1.10;48.40
17399;DHT22;8817;48.170;8.592;2023-02-08T06:58:31;1.10;48.40
17399;DHT22;8817;48.170;8.592;2023-02-08T07:00:58;1.10;48.40
17399;DHT22;8817;48.170;8.592;2023-02-08T07:03:25;1.10;48.40
17399;DHT22;8817;48.170;8.592;2023-02-08T07:05:52;1.10;48.40
17399;DHT22;8817;48.170;8.592;2023-02-08T07:08:19;1.10;48.40
17399;DHT22;8817;48.170;8.592;2023-02-08T07:10:46;1.10;48.40
17399;DHT22;8817;48.170;8.592;2023-02-08T07:13:14;1.10;48.40
17399;DHT22;8817;48.170;8.592;2023-02-08T07:15:41;1.10;48.50
17399;DHT22;8817;48.170;8.592;2023-02-08T07:18:08;1.10;48.50
17399;DHT22;8817;48.170;8.592;2023-02-08T07:20:35;1.20;48.70
17399;DHT22;8817;48.170;8.592;2023-02-08T07:23:02;1.20;48.70
17399;DHT22;8817;48.170;8.592;2023-02-08T07:25:29;1.20;48.70
17399;DHT22;8817;48.170;8.592;2023-02-08T07:27:55;1.30;48.80
17399;DHT22;8817;48.170;8.592;2023-02-08T07:30:24;1.30;48.80
17399;DHT22;8817;48.170;8.592;2023-02-08T07:32:52;1.40;48.90
17399;DHT22;8817;48.170;8.592;2023-02-08T07:35:19;1.40;48.90
17399;DHT22;8817;48.170;8.592;2023-02-08T07:37:46;1.40;48.90
17399;DHT22;8817;48.170;8.592;2023-02-08T07:40:12;1.50;48.90
17399;DHT22;8817;48.170;8.592;2023-02-08T07:42:39;1.60;49.00
17399;DHT22;8817;48.170;8.592;2023-02-08T07:45:07;1.70;49.00
17399;DHT22;8817;48.170;8.592;2023-02-08T07:47:35;1.70;49.00
17399;DHT22;8817;48.170;8.592;2023-02-08T07:50:02;1.70;49.00
17399;DHT22;8817;48.170;8.592;2023-02-08T07:52:29;1.80;49.00
17399;DHT22;8817;48.170;8.592;2023-02-08T07:54:56;1.80;49.00
17399;DHT22;8817;48.170;8.592;2023-02-08T07:57:23;2.00;49.10
17399;DHT22;8817;48.170;8.592;2023-02-08T07:59:50;2.00;49.00
17399;DHT22;8817;48.170;8.592;2023-02-08T08:02:17;2.00;49.10
17399;DHT22;8817;48.170;8.592;2023-02-08T08:04:45;2.10;49.10
17399;DHT22;8817;48.170;8.592;2023-02-08T08:07:12;2.10;49.10
17399;DHT22;8817;48.170;8.592;2023-02-08T08:09:39;2.20;49.10
17399;DHT22;8817;48.170;8.592;2023-02-08T08:12:06;2.30;49.20
17399;DHT22;8817;48.170;8.592;2023-02-08T08:14:33;2.30;49.10
17399;DHT22;8817;48.170;8.592;2023-02-08T08:17:00;2.40;49.10
17399;DHT22;8817;48.170;8.592;2023-02-08T08:19:27;2.40;49.10
17399;DHT22;8817;48.170;8.592;2023-02-08T08:21:55;2.50;49.20
17399;DHT22;8817;48.170;8.592;2023-02-08T08:24:22;2.50;49.20
17399;DHT22;8817;48.170;8.592;2023-02-08T08:26:49;2.60;49.20
17399;DHT22;8817;48.170;8.592;2023-02-08T08:29:16;2.70;49.30
17399;DHT22;8817;48.170;8.592;2023-02-08T08:31:43;2.70;49.20
17399;DHT22;8817;48.170;8.592;2023-02-08T08:34:10;2.80;49.30
17399;DHT22;8817;48.170;8.592;2023-02-08T08:36:37;2.80;49.30
17399;DHT22;8817;48.170;8.592;2023-02-08T08:39:05;2.90;49.30
17399;DHT22;8817;48.170;8.592;2023-02-08T08:41:32;2.90;49.30
17399;DHT22;8817;48.170;8.592;2023-02-08T08:44:00;3.00;49.30
17399;DHT22;8817;48.170;8.592;2023-02-08T08:46:27;3.10;49.30
17399;DHT22;8817;48.170;8.592;2023-02-08T08:48:54;3.10;49.30
17399;DHT22;8817;48.170;8.592;2023-02-08T08:51:21;3.20;49.30
17399;DHT22;8817;48.170;8.592;2023-02-08T08:53:48;3.20;49.30
17399;DHT22;8817;48.170;8.592;2023-02-08T08:56:16;3.30;49.30
17399;DHT22;8817;48.170;8.592;2023-02-08T08:58:43;3.30;49.30
17399;DHT22;8817;48.170;8.592;2023-02-08T09:01:10;3.40;49.30
17399;DHT22;8817;48.170;8.592;2023-02-08T09:03:38;3.40;49.30
17399;DHT22;8817;48.170;8.592;2023-02-08T09:06:05;3.50;49.30
17399;DHT22;8817;48.170;8.592;2023-02-08T09:08:32;3.50;49.30
17399;DHT22;8817;48.170;8.592;2023-02-08T09:11:04;3.50;49.30
17399;DHT22;8817;48.170;8.592;2023-02-08T09:13:33;3.60;49.30
17399;DHT22;8817;48.170;8.592;2023-02-08T09:16:04;3.60;49.30
17399;DHT22;8817;48.170;8.592;2023-02-08T09:18:31;3.70;49.40
17399;DHT22;8817;48.170;8.592;2023-02-08T09:20:58;3.70;49.40
17399;DHT22;8817;48.170;8.592;2023-02-08T09:23:25;3.80;49.40
17399;DHT22;8817;48.170;8.592;2023-02-08T09:25:52;3.80;49.40
17399;DHT22;8817;48.170;8.592;2023-02-08T09:28:19;3.90;49.40
17399;DHT22;8817;48.170;8.592;2023-02-08T09:30:47;3.90;49.40
17399;DHT22;8817;48.170;8.592;2023-02-08T09:33:14;3.90;49.40
17399;DHT22;8817;48.170;8.592;2023-02-08T09:35:41;4.00;49.50
17399;DHT22;8817;48.170;8.592;2023-02-08T09:38:08;4.00;49.50
17399;DHT22;8817;48.170;8.592;2023-02-08T09:40:41;4.10;49.50
17399;DHT22;8817;48.170;8.592;2023-02-08T09:43:17;4.10;49.50
17399;DHT22;8817;48.170;8.592;2023-02-08T09:45:51;4.20;49.50
17399;DHT22;8817;48.170;8.592;2023-02-08T09:48:24;4.30;49.60
17399;DHT22;8817;48.170;8.592;2023-02-08T09:50:54;4.40;49.60
17399;DHT22;8817;48.170;8.592;2023-02-08T09:53:27;4.40;49.60
17399;DHT22;8817;48.170;8.592;2023-02-08T09:55:59;4.50;49.60
17399;DHT22;8817;48.170;8.592;2023-02-08T09:58:29;4.50;49.60
17399;DHT22;8817;48.170;8.592;2023-02-08T10:01:01;4.60;49.70
17399;DHT22;8817;48.170;8.592;2023-02-08T10:03:34;4.60;49.60
17399;DHT22;8817;48.170;8.592;2023-02-08T10:06:03;4.70;49.70
17399;DHT22;8817;48.170;8.592;2023-02-08T10:08:31;4.70;49.70
17399;DHT22;8817;48.170;8.592;2023-02-08T10:11:08;4.80;49.70
17399;DHT22;8817;48.170;8.592;2023-02-08T10:14:01;4.80;49.70
17399;DHT22;8817;48.170;8.592;2023-02-08T10:16:42;4.90;49.70
17399;DHT22;8817;48.170;8.592;2023-02-08T10:19:25;5.00;49.80
17399;DHT22;8817;48.170;8.592;2023-02-08T10:22:05;5.00;49.70
17399;DHT22;8817;48.170;8.592;2023-02-08T10:25:00;5.10;49.80
17399;DHT22;8817;48.170;8.592;2023-02-08T10:27:38;5.20;50.40
17399;DHT22;8817;48.170;8.592;2023-02-08T10:30:14;5.20;49.80
17399;DHT22;8817;48.170;8.592;2023-02-08T10:32:55;5.30;49.70
17399;DHT22;8817;48.170;8.592;2023-02-08T10:35:27;5.30;49.60
17399;DHT22;8817;48.170;8.592;2023-02-08T10:37:57;5.40;50.30
17399;DHT22;8817;48.170;8.592;2023-02-08T10:40:35;5.40;49.80
17399;DHT22;8817;48.170;8.592;2023-02-08T10:43:16;5.50;50.40
17399;DHT22;8817;48.170;8.592;2023-02-08T10:45:51;5.60;49.90
17399;DHT22;8817;48.170;8.592;2023-02-08T10:48:33;5.60;50.00
17399;DHT22;8817;48.170;8.592;2023-02-08T10:51:03;5.70;50.00
17399;DHT22;8817;48.170;8.592;2023-02-08T10:53:30;5.80;50.00
17399;DHT22;8817;48.170;8.592;2023-02-08T10:55:57;5.80;50.10
17399;DHT22;8817;48.170;8.592;2023-02-08T10:58:24;5.90;50.10
17399;DHT22;8817;48.170;8.592;2023-02-08T11:00:52;6.00;50.20
17399;DHT22;8817;48.170;8.592;2023-02-08T11:03:21;6.10;50.20
17399;DHT22;8817;48.170;8.592;2023-02-08T11:05:50;6.20;50.20
17399;DHT22;8817;48.170;8.592;2023-02-08T11:08:18;6.30;50.30
17399;DHT22;8817;48.170;8.592;2023-02-08T11:10:56;6.40;50.30
17399;DHT22;8817;48.170;8.592;2023-02-08T11:13:30;6.40;50.20
17399;DHT22;8817;48.170;8.592;2023-02-08T11:15:59;6.60;50.20
17399;DHT22;8817;48.170;8.592;2023-02-08T11:18:29;6.60;50.20
17399;DHT22;8817;48.170;8.592;2023-02-08T11:21:02;6.70;50.20
17399;DHT22;8817;48.170;8.592;2023-02-08T11:23:30;6.80;50.20
17399;DHT22;8817;48.170;8.592;2023-02-08T11:26:14;6.80;50.20
17399;DHT22;8817;48.170;8.592;2023-02-08T11:28:41;6.90;50.10
17399;DHT22;8817;48.170;8.592;2023-02-08T11:31:16;7.00;50.20
17399;DHT22;8817;48.170;8.592;2023-02-08T11:33:58;7.00;50.10
17399;DHT22;8817;48.170;8.592;2023-02-08T11:36:27;7.00;50.10
17399;DHT22;8817;48.170;8.592;2023-02-08T11:38:55;7.10;50.10
17399;DHT22;8817;48.170;8.592;2023-02-08T11:41:22;7.20;50.10
17399;DHT22;8817;48.170;8.592;2023-02-08T11:43:55;7.20;50.10
17399;DHT22;8817;48.170;8.592;2023-02-08T11:46:25;7.30;50.10
17399;DHT22;8817;48.170;8.592;2023-02-08T11:48:53;7.30;50.10
17399;DHT22;8817;48.170;8.592;2023-02-08T11:51:28;7.40;50.20
17399;DHT22;8817;48.170;8.592;2023-02-08T11:53:56;7.40;50.10
17399;DHT22;8817;48.170;8.592;2023-02-08T11:56:26;7.50;50.10
17399;DHT22;8817;48.170;8.592;2023-02-08T11:58:59;7.50;50.00
17399;DHT22;8817;48.170;8.592;2023-02-08T12:01:29;7.60;50.10
17399;DHT22;8817;48.170;8.592;2023-02-08T12:03:58;7.60;50.00
17399;DHT22;8817;48.170;8.592;2023-02-08T12:10:00;7.70;49.80
17399;DHT22;8817;48.170;8.592;2023-02-08T12:12:39;7.80;49.80
17399;DHT22;8817;48.170;8.592;2023-02-08T12:15:17;7.80;49.90
17399;DHT22;8817;48.170;8.592;2023-02-08T12:18:01;7.80;49.90
17399;DHT22;8817;48.170;8.592;2023-02-08T12:20:36;7.80;49.80
17399;DHT22;8817;48.170;8.592;2023-02-08T12:26:09;8.00;49.90
17399;DHT22;8817;48.170;8.592;2023-02-08T12:28:49;8.00;49.80
17399;DHT22;8817;48.170;8.592;2023-02-08T12:31:25;8.10;49.80
17399;DHT22;8817;48.170;8.592;2023-02-08T12:34:03;8.10;49.60
17399;DHT22;8817;48.170;8.592;2023-02-08T12:36:49;8.10;49.50
17399;DHT22;8817;48.170;8.592;2023-02-08T12:39:43;8.20;49.60
17399;DHT22;8817;48.170;8.592;2023-02-08T12:42:37;8.20;49.60
17399;DHT22;8817;48.170;8.592;2023-02-08T12:45:15;8.20;49.60
17399;DHT22;8817;48.170;8.592;2023-02-08T12:47:59;8.30;49.70
17399;DHT22;8817;48.170;8.592;2023-02-08T12:50:37;8.30;49.70
17399;DHT22;8817;48.170;8.592;2023-02-08T12:53:18;8.40;49.70
17399;DHT22;8817;48.170;8.592;2023-02-08T12:55:47;8.50;49.70
17399;DHT22;8817;48.170;8.592;2023-02-08T12:58:23;8.50;49.60
17399;DHT22;8817;48.170;8.592;2023-02-08T13:00:52;8.50;49.60
17399;DHT22;8817;48.170;8.592;2023-02-08T13:03:29;8.60;49.60
17399;DHT22;8817;48.170;8.592;2023-02-08T13:05:58;8.60;49.50
17399;DHT22;8817;48.170;8.592;2023-02-08T13:08:31;8.70;49.60
17399;DHT22;8817;48.170;8.592;2023-02-08T13:11:05;8.70;49.50
17399;DHT22;8817;48.170;8.592;2023-02-08T13:13:35;8.70;49.40
17399;DHT22;8817;48.170;8.592;2023-02-08T13:16:08;8.80;49.50
17399;DHT22;8817;48.170;8.592;2023-02-08T13:18:42;8.80;49.60
17399;DHT22;8817;48.170;8.592;2023-02-08T13:21:13;8.90;49.60
17399;DHT22;8817;48.170;8.592;2023-02-08T13:23:43;8.90;49.60
17399;DHT22;8817;48.170;8.592;2023-02-08T13:26:15;9.00;49.60
17399;DHT22;8817;48.170;8.592;2023-02-08T13:28:46;9.10;49.50
17399;DHT22;8817;48.170;8.592;2023-02-08T13:31:16;9.10;49.40
17399;DHT22;8817;48.170;8.592;2023-02-08T13:33:48;9.20;49.50
17399;DHT22;8817;48.170;8.592;2023-02-08T13:36:21;9.20;49.60
17399;DHT22;8817;48.170;8.592;2023-02-08T13:38:49;9.30;49.60
17399;DHT22;8817;48.170;8.592;2023-02-08T13:41:19;9.30;49.60
17399;DHT22;8817;48.170;8.592;2023-02-08T13:43:51;9.40;49.50
17399;DHT22;8817;48.170;8.592;2023-02-08T13:46:20;9.50;49.50
17399;DHT22;8817;48.170;8.592;2023-02-08T13:48:50;9.50;49.60
17399;DHT22;8817;48.170;8.592;2023-02-08T13:54:28;9.60;49.70
17399;DHT22;8817;48.170;8.592;2023-02-08T13:56:57;9.70;49.70
17399;DHT22;8817;48.170;8.592;2023-02-08T13:59:26;9.80;49.70
17399;DHT22;8817;48.170;8.592;2023-02-08T14:02:25;9.90;49.80
17399;DHT22;8817;48.170;8.592;2023-02-08T14:05:21;9.90;49.80
17399;DHT22;8817;48.170;8.592;2023-02-08T14:07:46;10.00;49.80
17399;DHT22;8817;48.170;8.592;2023-02-08T14:10:23;10.20;50.00
17399;DHT22;8817;48.170;8.592;2023-02-08T14:12:56;10.30;50.00
17399;DHT22;8817;48.170;8.592;2023-02-08T14:15:36;10.40;50.00
17399;DHT22;8817;48.170;8.592;2023-02-08T14:18:04;10.50;50.60
17399;DHT22;8817;48.170;8.592;2023-02-08T14:20:56;10.60;50.30
17399;DHT22;8817;48.170;8.592;2023-02-08T14:23:26;10.70;50.20
17399;DHT22;8817;48.170;8.592;2023-02-08T14:25:56;10.80;50.30
17399;DHT22;8817;48.170;8.592;2023-02-08T14:28:31;11.00;50.40
17399;DHT22;8817;48.170;8.592;2023-02-08T14:31:01;11.10;50.30
17399;DHT22;8817;48.170;8.592;2023-02-08T14:33:34;11.20;50.40
17399;DHT22;8817;48.170;8.592;2023-02-08T14:36:03;11.20;51.00
17399;DHT22;8817;48.170;8.592;2023-02-08T14:38:54;11.40;50.60
17399;DHT22;8817;48.170;8.592;2023-02-08T14:41:45;11.50;50.60
17399;DHT22;8817;48.170;8.592;2023-02-08T14:50:40;11.90;50.40
17399;DHT22;8817;48.170;8.592;2023-02-08T14:53:22;12.00;50.10
17399;DHT22;8817;48.170;8.592;2023-02-08T14:55:53;12.10;49.60
17399;DHT22;8817;48.170;8.592;2023-02-08T14:58:33;12.30;49.20
17399;DHT22;8817;48.170;8.592;2023-02-08T15:01:04;12.30;48.70
17399;DHT22;8817;48.170;8.592;2023-02-08T15:03:33;12.30;48.40
17399;DHT22;8817;48.170;8.592;2023-02-08T15:06:34;12.20;48.10
17399;DHT22;8817;48.170;8.592;2023-02-08T15:09:13;12.10;48.20
17399;DHT22;8817;48.170;8.592;2023-02-08T15:11:41;12.00;48.20
17399;DHT22;8817;48.170;8.592;2023-02-08T15:14:17;11.90;48.00
17399;DHT22;8817;48.170;8.592;2023-02-08T15:16:45;11.80;47.90
17399;DHT22;8817;48.170;8.592;2023-02-08T15:19:20;11.70;48.00
17399;DHT22;8817;48.170;8.592;2023-02-08T15:21:49;11.60;47.80
17399;DHT22;8817;48.170;8.592;2023-02-08T15:24:17;11.60;47.90
17399;DHT22;8817;48.170;8.592;2023-02-08T15:26:48;11.50;47.90
17399;DHT22;8817;48.170;8.592;2023-02-08T15:29:18;11.50;48.40
17399;DHT22;8817;48.170;8.592;2023-02-08T15:31:46;11.50;48.40
17399;DHT22;8817;48.170;8.592;2023-02-08T15:34:13;11.50;48.80
17399;DHT22;8817;48.170;8.592;2023-02-08T15:36:45;11.60;49.10
17399;DHT22;8817;48.170;8.592;2023-02-08T15:39:26;11.60;49.40
17399;DHT22;8817;48.170;8.592;2023-02-08T15:41:55;11.70;49.50
17399;DHT22;8817;48.170;8.592;2023-02-08T15:44:25;11.90;49.60
17399;DHT22;8817;48.170;8.592;2023-02-08T15:46:55;12.00;49.60
17399;DHT22;8817;48.170;8.592;2023-02-08T15:49:27;12.20;49.40
17399;DHT22;8817;48.170;8.592;2023-02-08T15:51:56;12.30;49.30
17399;DHT22;8817;48.170;8.592;2023-02-08T15:54:24;12.40;49.20
17399;DHT22;8817;48.170;8.592;2023-02-08T15:56:54;12.50;49.10
17399;DHT22;8817;48.170;8.592;2023-02-08T15:59:24;12.60;49.00
17399;DHT22;8817;48.170;8.592;2023-02-08T16:01:53;12.70;49.00
17399;DHT22;8817;48.170;8.592;2023-02-08T16:04:21;12.80;48.70
17399;DHT22;8817;48.170;8.592;2023-02-08T16:06:51;12.90;48.10
17399;DHT22;8817;48.170;8.592;2023-02-08T16:09:21;12.80;47.20
17399;DHT22;8817;48.170;8.592;2023-02-08T16:11:51;12.70;46.60
17399;DHT22;8817;48.170;8.592;2023-02-08T16:14:22;12.50;45.90
17399;DHT22;8817;48.170;8.592;2023-02-08T16:16:51;12.20;45.50
17399;DHT22;8817;48.170;8.592;2023-02-08T16:19:21;11.90;45.40
17399;DHT22;8817;48.170;8.592;2023-02-08T16:21:49;11.60;45.80
17399;DHT22;8817;48.170;8.592;2023-02-08T16:24:21;11.30;45.20
17399;DHT22;8817;48.170;8.592;2023-02-08T16:26:59;10.90;45.10
17399;DHT22;8817;48.170;8.592;2023-02-08T16:29:28;10.60;45.20
17399;DHT22;8817;48.170;8.592;2023-02-08T16:31:58;10.30;45.20
17399;DHT22;8817;48.170;8.592;2023-02-08T16:34:29;10.00;45.20
17399;DHT22;8817;48.170;8.592;2023-02-08T16:36:57;9.70;45.30
17399;DHT22;8817;48.170;8.592;2023-02-08T16:39:36;9.50;45.30
17399;DHT22;8817;48.170;8.592;2023-02-08T16:42:06;9.20;45.30
17399;DHT22;8817;48.170;8.592;2023-02-08T16:47:51;8.80;45.50